Time;durP1;ratioP1;P1;durP2;ratioP2;P2;SDS_P1;SDS_P2;PMS_P1;PMS_P2;Temp;Humidity;BMP_temperature;BMP_pressure;BME280_temperature;BME280_humidity;BME280_pressure;Samples;Min_cycle;Max_cycle;Signal;HPM_P1;HPM_P2
2021/05/02 00:01:21;;;;;;;33.55;14.15;;;;;;;;;;5049872;28;20028;-64
2021/05/02 00:03:47;;;;;;;37.60;14.98;;;;;;;;;;5050086;28;20021;-66
2021/05/02 00:06:12;;;;;;;43.88;15.27;;;;;;;;;;5049092;28;20119;-66
2021/05/02 00:08:39;;;;;;;34.28;15.30;;;;;;;;;;5049895;28;20036;-66
2021/05/02 00:11:06;;;;;;;40.15;14.93;;;;;;;;;;5049799;28;20040;-65
2021/05/02 00:13:32;;;;;;;39.30;14.68;;;;;;;;;;5049714;28;20028;-65
2021/05/02 00:15:58;;;;;;;44.88;16.50;;;;;;;;;;5048068;28;20373;-66
2021/05/02 00:18:24;;;;;;;38.65;15.82;;;;;;;;;;5049776;28;20445;-65
2021/05/02 00:20:52;;;;;;;39.58;14.85;;;;;;;;;;5049644;28;20060;-66
2021/05/02 00:23:18;;;;;;;36.03;15.05;;;;;;;;;;5049720;28;20036;-66
2021/05/02 00:25:43;;;;;;;39.35;14.95;;;;;;;;;;5049339;28;20025;-66
2021/05/02 00:28:09;;;;;;;39.35;15.88;;;;;;;;;;5047974;28;20045;-66
2021/05/02 00:30:35;;;;;;;36.90;15.25;;;;;;;;;;5049442;28;20040;-66
2021/05/02 00:33:01;;;;;;;38.00;14.63;;;;;;;;;;5048464;28;20124;-66
2021/05/02 00:35:27;;;;;;;36.97;15.50;;;;;;;;;;5048658;28;20036;-66
2021/05/02 00:37:54;;;;;;;38.92;14.75;;;;;;;;;;5048996;28;20017;-66
2021/05/02 00:40:40;;;;;;;35.35;14.85;;;;;;;;;;5049577;28;20526;-66
2021/05/02 00:43:07;;;;;;;37.38;14.82;;;;;;;;;;5049562;28;20067;-66
2021/05/02 00:45:47;;;;;;;39.50;16.17;;;;;;;;;;5049425;28;20029;-66
2021/05/02 00:48:35;;;;;;;44.95;16.30;;;;;;;;;;5048926;28;20088;-66
2021/05/02 00:51:04;;;;;;;48.47;17.08;;;;;;;;;;5049448;28;20013;-65
2021/05/02 00:53:36;;;;;;;41.25;15.82;;;;;;;;;;5049470;28;20707;-66
2021/05/02 00:56:10;;;;;;;48.08;17.05;;;;;;;;;;5048977;28;20024;-66
2021/05/02 00:58:42;;;;;;;35.60;14.13;;;;;;;;;;5049102;28;20028;-66
2021/05/02 01:01:08;;;;;;;38.22;15.57;;;;;;;;;;5048618;28;20579;-65
2021/05/02 01:03:35;;;;;;;42.92;15.98;;;;;;;;;;5049478;28;20036;-66
2021/05/02 01:06:08;;;;;;;44.10;16.65;;;;;;;;;;5048975;28;20033;-65
2021/05/02 01:08:35;;;;;;;46.53;16.17;;;;;;;;;;5052797;28;20461;-66
2021/05/02 01:11:03;;;;;;;39.05;14.93;;;;;;;;;;5053264;28;20718;-65
2021/05/02 01:13:29;;;;;;;42.22;17.02;;;;;;;;;;5053306;28;20024;-66
2021/05/02 01:15:58;;;;;;;52.35;16.67;;;;;;;;;;5053070;28;20033;-66
2021/05/02 01:18:24;;;;;;;45.60;17.50;;;;;;;;;;5053013;28;20029;-66
2021/05/02 01:20:50;;;;;;;49.58;16.95;;;;;;;;;;5053132;28;20139;-65
2021/05/02 01:23:26;;;;;;;43.97;16.73;;;;;;;;;;5053062;28;20025;-65
2021/05/02 01:25:53;;;;;;;48.92;16.10;;;;;;;;;;5052803;28;20040;-65
2021/05/02 01:28:19;;;;;;;41.67;16.83;;;;;;;;;;5036550;28;20013;-66
2021/05/02 01:30:44;;;;;;;41.05;16.08;;;;;;;;;;5052755;28;20104;-66
2021/05/02 01:33:10;;;;;;;45.05;16.42;;;;;;;;;;5052843;28;20174;-65
2021/05/02 01:35:36;;;;;;;46.17;17.02;;;;;;;;;;5052332;28;20021;-65
2021/05/02 01:38:01;;;;;;;48.47;16.67;;;;;;;;;;5052849;28;20041;-66
2021/05/02 01:40:27;;;;;;;46.95;17.10;;;;;;;;;;5052121;28;20045;-66
2021/05/02 01:42:52;;;;;;;47.45;16.42;;;;;;;;;;5052633;28;20017;-65
2021/05/02 01:45:18;;;;;;;46.55;16.15;;;;;;;;;;5052422;28;20115;-66
2021/05/02 01:47:46;;;;;;;42.40;14.43;;;;;;;;;;5052469;28;20062;-66
2021/05/02 01:50:12;;;;;;;42.22;15.23;;;;;;;;;;5052475;28;20029;-65
2021/05/02 01:52:46;;;;;;;39.78;15.20;;;;;;;;;;5052370;28;20465;-66
2021/05/02 01:55:14;;;;;;;44.30;15.43;;;;;;;;;;5052165;28;20117;-66
2021/05/02 01:57:39;;;;;;;42.15;14.98;;;;;;;;;;5052655;28;20037;-65
2021/05/02 02:00:07;;;;;;;42.92;15.20;;;;;;;;;;5051670;28;20024;-66
2021/05/02 02:02:34;;;;;;;48.22;15.40;;;;;;;;;;5051833;28;20041;-63
2021/05/02 02:05:00;;;;;;;44.78;15.93;;;;;;;;;;5052316;28;20032;-66
2021/05/02 02:07:26;;;;;;;39.70;14.90;;;;;;;;;;5052148;28;20055;-65
2021/05/02 02:09:52;;;;;;;42.63;15.65;;;;;;;;;;5051682;28;20040;-65
2021/05/02 02:12:18;;;;;;;43.30;15.68;;;;;;;;;;5035696;28;20041;-66
2021/05/02 02:14:44;;;;;;;46.70;16.65;;;;;;;;;;5051990;28;20026;-65
2021/05/02 02:17:10;;;;;;;47.65;15.98;;;;;;;;;;5051307;28;20041;-65
2021/05/02 02:19:36;;;;;;;46.50;16.27;;;;;;;;;;5051922;28;20500;-65
2021/05/02 02:22:04;;;;;;;48.63;15.48;;;;;;;;;;5051271;28;20059;-65
2021/05/02 02:24:40;;;;;;;38.85;13.70;;;;;;;;;;5051843;28;20469;-65
2021/05/02 02:27:07;;;;;;;44.38;15.43;;;;;;;;;;5051607;28;20032;-66
2021/05/02 02:29:36;;;;;;;39.83;14.32;;;;;;;;;;5052137;28;20029;-65
2021/05/02 02:32:04;;;;;;;52.03;16.08;;;;;;;;;;5051354;28;20112;-65
2021/05/02 02:34:32;;;;;;;40.30;14.70;;;;;;;;;;5051971;28;20009;-65
2021/05/02 02:36:58;;;;;;;39.65;13.75;;;;;;;;;;5051487;28;20055;-65
2021/05/02 02:39:24;;;;;;;47.83;14.98;;;;;;;;;;5051330;28;20132;-65
2021/05/02 02:41:50;;;;;;;38.63;14.80;;;;;;;;;;5051155;28;20124;-65
2021/05/02 02:44:17;;;;;;;40.47;14.73;;;;;;;;;;5051280;28;20716;-65
2021/05/02 02:46:46;;;;;;;43.85;14.88;;;;;;;;;;5051492;28;20029;-65
2021/05/02 02:49:13;;;;;;;46.63;14.57;;;;;;;;;;5051413;28;20025;-66
2021/05/02 02:51:40;;;;;;;40.33;14.43;;;;;;;;;;5051157;28;20060;-65
2021/05/02 02:54:07;;;;;;;41.75;14.40;;;;;;;;;;5051400;28;20033;-65
2021/05/02 02:56:33;;;;;;;44.75;16.08;;;;;;;;;;5051252;28;20013;-63
2021/05/02 02:59:02;;;;;;;44.85;14.48;;;;;;;;;;5051244;28;20618;-65
2021/05/02 03:01:28;;;;;;;42.83;15.07;;;;;;;;;;5050804;28;20052;-63
2021/05/02 03:03:55;;;;;;;48.45;16.15;;;;;;;;;;5051222;28;20021;-65
2021/05/02 03:06:25;;;;;;;52.58;15.60;;;;;;;;;;5051003;28;20025;-65
2021/05/02 03:08:52;;;;;;;37.28;13.85;;;;;;;;;;5051231;28;20033;-65
2021/05/02 03:11:18;;;;;;;50.63;15.55;;;;;;;;;;5050697;28;20021;-65
2021/05/02 03:13:45;;;;;;;54.22;15.70;;;;;;;;;;5050702;28;20094;-65
2021/05/02 03:16:11;;;;;;;45.22;16.02;;;;;;;;;;5050761;28;20040;-65
2021/05/02 03:18:56;;;;;;;44.63;15.45;;;;;;;;;;5050846;28;20013;-66
2021/05/02 03:21:28;;;;;;;55.50;15.65;;;;;;;;;;5050587;28;20068;-65
2021/05/02 03:23:57;;;;;;;45.75;15.80;;;;;;;;;;5050507;28;20082;-65
2021/05/02 03:26:24;;;;;;;49.00;16.38;;;;;;;;;;5050429;28;20583;-65
2021/05/02 03:28:54;;;;;;;46.65;15.68;;;;;;;;;;5050029;28;20835;-65
2021/05/02 03:31:24;;;;;;;50.00;16.98;;;;;;;;;;5048567;28;20063;-66
2021/05/02 03:33:52;;;;;;;51.92;15.98;;;;;;;;;;5050677;28;20029;-65
2021/05/02 03:36:23;;;;;;;49.67;15.70;;;;;;;;;;5034285;28;20102;-65
2021/05/02 03:38:49;;;;;;;44.08;15.82;;;;;;;;;;5050083;28;20021;-65
2021/05/02 03:41:19;;;;;;;44.97;15.48;;;;;;;;;;5050295;28;20386;-65
2021/05/02 03:43:45;;;;;;;38.45;14.45;;;;;;;;;;5049802;28;20115;-65
2021/05/02 03:46:24;;;;;;;38.45;14.27;;;;;;;;;;5049880;28;20025;-65
2021/05/02 03:49:08;;;;;;;47.38;15.45;;;;;;;;;;5050455;28;20078;-66
2021/05/02 03:51:35;;;;;;;46.03;14.90;;;;;;;;;;5049890;28;20040;-65
2021/05/02 03:54:01;;;;;;;42.47;14.30;;;;;;;;;;5049685;28;20547;-65
2021/05/02 03:56:37;;;;;;;40.53;14.80;;;;;;;;;;5049996;28;20032;-65
2021/05/02 03:59:19;;;;;;;44.00;15.60;;;;;;;;;;5050053;28;20029;-65
2021/05/02 04:02:02;;;;;;;49.78;15.52;;;;;;;;;;5049841;28;20052;-62
2021/05/02 04:04:32;;;;;;;43.03;16.40;;;;;;;;;;5049775;28;20095;-65
2021/05/02 04:06:58;;;;;;;55.38;17.38;;;;;;;;;;5049638;28;20501;-65
2021/05/02 04:09:24;;;;;;;49.00;16.92;;;;;;;;;;5049826;28;20067;-65
2021/05/02 04:11:50;;;;;;;53.95;18.73;;;;;;;;;;5049996;28;20041;-65
2021/05/02 04:14:17;;;;;;;63.30;18.63;;;;;;;;;;5049625;28;20047;-65
2021/05/02 04:16:42;;;;;;;54.90;19.00;;;;;;;;;;5049852;28;20095;-65
2021/05/02 04:19:09;;;;;;;55.70;18.08;;;;;;;;;;5049578;28;20115;-65
2021/05/02 04:21:35;;;;;;;56.03;17.85;;;;;;;;;;5049719;28;20098;-65
2021/05/02 04:24:04;;;;;;;56.78;17.90;;;;;;;;;;5049426;28;20820;-65
2021/05/02 04:26:29;;;;;;;62.63;18.40;;;;;;;;;;5049528;28;20041;-65
2021/05/02 04:28:55;;;;;;;49.35;17.92;;;;;;;;;;5049834;28;20036;-65
2021/05/02 04:31:21;;;;;;;53.65;18.45;;;;;;;;;;5049492;28;20021;-65
2021/05/02 04:33:47;;;;;;;56.67;17.58;;;;;;;;;;5049766;28;20055;-65
2021/05/02 04:36:13;;;;;;;55.67;18.15;;;;;;;;;;5049044;28;20032;-65
2021/05/02 04:38:39;;;;;;;48.60;16.58;;;;;;;;;;5049880;28;20017;-65
2021/05/02 04:41:05;;;;;;;43.53;15.40;;;;;;;;;;5048469;28;20056;-65
2021/05/02 04:43:31;;;;;;;54.38;15.77;;;;;;;;;;5049389;28;20057;-65
2021/05/02 04:45:57;;;;;;;59.67;18.25;;;;;;;;;;5048743;28;20469;-65
2021/05/02 04:48:23;;;;;;;51.67;16.92;;;;;;;;;;5049197;28;20032;-65
2021/05/02 04:50:48;;;;;;;55.35;17.23;;;;;;;;;;5049668;28;20040;-65
2021/05/02 04:53:14;;;;;;;49.30;18.33;;;;;;;;;;5049358;28;20032;-65
2021/05/02 04:55:40;;;;;;;56.63;18.45;;;;;;;;;;5048977;28;20041;-65
2021/05/02 04:58:06;;;;;;;51.85;17.38;;;;;;;;;;5048986;28;20542;-65
2021/05/02 05:00:33;;;;;;;57.10;18.35;;;;;;;;;;5049108;28;20458;-65
2021/05/02 05:03:01;;;;;;;51.90;16.35;;;;;;;;;;5049189;28;20040;-65
2021/05/02 05:05:26;;;;;;;61.65;18.40;;;;;;;;;;5048735;28;20730;-65
2021/05/02 05:07:52;;;;;;;49.63;16.23;;;;;;;;;;5049189;28;20028;-65
2021/05/02 05:10:18;;;;;;;47.42;16.35;;;;;;;;;;5049352;28;20442;-65
2021/05/02 05:12:44;;;;;;;56.60;18.25;;;;;;;;;;5049268;28;20033;-65
2021/05/02 05:15:10;;;;;;;56.53;20.00;;;;;;;;;;5049092;28;20021;-65
2021/05/02 05:17:35;;;;;;;49.28;16.60;;;;;;;;;;5049043;28;20055;-65
2021/05/02 05:20:02;;;;;;;52.47;15.90;;;;;;;;;;5049280;28;20033;-65
2021/05/02 05:22:27;;;;;;;44.53;15.98;;;;;;;;;;5049195;28;20095;-66
2021/05/02 05:24:53;;;;;;;40.38;14.57;;;;;;;;;;5049260;28;20553;-66
2021/05/02 05:27:18;;;;;;;32.10;12.25;;;;;;;;;;5048568;28;20040;-66
2021/05/02 05:29:44;;;;;;;33.28;11.25;;;;;;;;;;5049305;28;20099;-66
2021/05/02 05:32:10;;;;;;;26.92;12.10;;;;;;;;;;5049028;28;20037;-66
2021/05/02 05:34:35;;;;;;;24.77;11.05;;;;;;;;;;5049291;28;20036;-64
2021/05/02 05:37:01;;;;;;;20.27;10.10;;;;;;;;;;5048612;28;20021;-66
2021/05/02 05:39:27;;;;;;;85.13;12.68;;;;;;;;;;5048836;28;20083;-67
2021/05/02 05:41:52;;;;;;;43.47;9.88;;;;;;;;;;5048950;28;20124;-66
2021/05/02 05:44:20;;;;;;;215.35;15.15;;;;;;;;;;5049011;28;20021;-64
2021/05/02 05:46:46;;;;;;;170.48;14.13;;;;;;;;;;5048409;28;20465;-64
2021/05/02 05:49:13;;;;;;;676.08;37.67;;;;;;;;;;5048890;28;20083;-65
2021/05/02 05:51:39;;;;;;;451.83;26.60;;;;;;;;;;5049231;28;20124;-64
2021/05/02 05:54:05;;;;;;;788.80;41.85;;;;;;;;;;5051391;28;20024;-65
2021/05/02 05:56:30;;;;;;;306.65;18.38;;;;;;;;;;5052453;28;20070;-64
2021/05/02 05:58:56;;;;;;;74.47;8.55;;;;;;;;;;5052338;28;20021;-65
2021/05/02 06:01:22;;;;;;;66.32;8.02;;;;;;;;;;5052190;28;20413;-65
2021/05/02 06:03:48;;;;;;;15.65;5.35;;;;;;;;;;5052533;28;20112;-65
2021/05/02 06:06:14;;;;;;;48.55;6.88;;;;;;;;;;5052050;28;20131;-64
2021/05/02 06:08:39;;;;;;;20.33;6.18;;;;;;;;;;5051739;28;20025;-65
2021/05/02 06:11:05;;;;;;;13.48;5.50;;;;;;;;;;5052257;28;20090;-65
2021/05/02 06:13:30;;;;;;;7.68;5.32;;;;;;;;;;5052206;28;20020;-64
2021/05/02 06:15:56;;;;;;;7.65;4.93;;;;;;;;;;5052095;28;20036;-65
2021/05/02 06:18:22;;;;;;;6.75;4.63;;;;;;;;;;5051344;28;20051;-65
2021/05/02 06:20:47;;;;;;;6.93;4.78;;;;;;;;;;5051944;28;20051;-66
2021/05/02 06:23:13;;;;;;;8.23;5.10;;;;;;;;;;5051787;28;20029;-65
2021/05/02 06:25:39;;;;;;;9.57;4.68;;;;;;;;;;5052169;28;20072;-65
2021/05/02 06:28:04;;;;;;;6.07;4.28;;;;;;;;;;5053429;28;20552;-65
2021/05/02 06:30:29;;;;;;;7.68;4.75;;;;;;;;;;5055489;28;20032;-65
2021/05/02 06:32:55;;;;;;;7.93;4.80;;;;;;;;;;5055154;28;20413;-65
2021/05/02 06:35:20;;;;;;;6.38;4.78;;;;;;;;;;5055160;28;20071;-65
2021/05/02 06:37:46;;;;;;;5.22;4.30;;;;;;;;;;5055068;28;20032;-66
2021/05/02 06:40:11;;;;;;;6.05;3.90;;;;;;;;;;5055181;28;20396;-65
2021/05/02 06:42:36;;;;;;;4.82;3.72;;;;;;;;;;5042403;28;20033;-65
2021/05/02 06:45:02;;;;;;;8.10;4.18;;;;;;;;;;5035038;28;20030;-65
2021/05/02 06:47:28;;;;;;;4.95;3.53;;;;;;;;;;5035056;28;20093;-66
2021/05/02 06:49:53;;;;;;;4.80;3.72;;;;;;;;;;5035169;28;20108;-65
2021/05/02 06:52:18;;;;;;;6.72;4.38;;;;;;;;;;5034974;28;20417;-66
2021/05/02 06:54:44;;;;;;;5.82;4.32;;;;;;;;;;5035047;28;20437;-66
2021/05/02 06:57:10;;;;;;;6.32;4.55;;;;;;;;;;5034706;28;20060;-65
2021/05/02 06:59:35;;;;;;;5.70;4.05;;;;;;;;;;5034996;28;20473;-65
2021/05/02 07:02:00;;;;;;;6.00;4.15;;;;;;;;;;5044410;28;20107;-66
2021/05/02 07:04:26;;;;;;;4.30;3.47;;;;;;;;;;5054754;28;20024;-66
2021/05/02 07:06:52;;;;;;;5.78;3.65;;;;;;;;;;5054597;28;20025;-66
2021/05/02 07:09:17;;;;;;;5.70;3.92;;;;;;;;;;5054607;28;20393;-66
2021/05/02 07:11:42;;;;;;;4.35;3.42;;;;;;;;;;5054494;28;20024;-66
2021/05/02 07:14:07;;;;;;;6.47;4.57;;;;;;;;;;5054534;28;20381;-66
2021/05/02 07:16:33;;;;;;;7.25;4.90;;;;;;;;;;5054373;28;20033;-66
2021/05/02 07:18:58;;;;;;;5.30;3.80;;;;;;;;;;5054218;28;20021;-66
2021/05/02 07:21:23;;;;;;;4.70;3.90;;;;;;;;;;5054310;28;20041;-66
2021/05/02 07:23:50;;;;;;;6.63;3.80;;;;;;;;;;5054258;28;20488;-66
2021/05/02 07:26:16;;;;;;;4.50;3.38;;;;;;;;;;5054261;28;20096;-66
2021/05/02 07:28:41;;;;;;;5.72;3.95;;;;;;;;;;5053887;28;20091;-66
2021/05/02 07:31:07;;;;;;;8.43;3.70;;;;;;;;;;5054163;28;20032;-66
2021/05/02 07:33:32;;;;;;;8.40;4.55;;;;;;;;;;5053767;28;20021;-66
2021/05/02 07:35:57;;;;;;;6.13;4.15;;;;;;;;;;5051796;28;20056;-66
2021/05/02 07:38:23;;;;;;;8.07;4.68;;;;;;;;;;5053336;28;20036;-66
2021/05/02 07:40:49;;;;;;;8.30;5.55;;;;;;;;;;5052884;28;20045;-66
2021/05/02 07:43:14;;;;;;;10.52;6.18;;;;;;;;;;5053163;28;20029;-66
2021/05/02 07:45:40;;;;;;;8.65;5.93;;;;;;;;;;5053347;28;20514;-66
2021/05/02 07:48:05;;;;;;;8.02;6.10;;;;;;;;;;5053534;28;20021;-66
2021/05/02 07:50:30;;;;;;;10.15;5.72;;;;;;;;;;5053260;28;20032;-66
2021/05/02 07:52:56;;;;;;;7.35;6.10;;;;;;;;;;5053134;28;20033;-66
2021/05/02 07:55:21;;;;;;;8.57;6.10;;;;;;;;;;5053330;28;20017;-66
2021/05/02 07:57:46;;;;;;;7.65;5.75;;;;;;;;;;5052962;28;20028;-67
2021/05/02 08:00:12;;;;;;;6.88;5.53;;;;;;;;;;5052930;28;20037;-67
2021/05/02 08:02:41;;;;;;;7.45;5.60;;;;;;;;;;5053033;28;20056;-66
2021/05/02 08:05:10;;;;;;;8.45;5.95;;;;;;;;;;5053368;28;20040;-67
2021/05/02 08:07:35;;;;;;;8.55;6.38;;;;;;;;;;5053335;28;20079;-67
2021/05/02 08:10:01;;;;;;;7.20;5.85;;;;;;;;;;5053282;28;20025;-67
2021/05/02 08:12:27;;;;;;;8.68;6.90;;;;;;;;;;5053384;28;20039;-66
2021/05/02 08:14:52;;;;;;;7.10;5.43;;;;;;;;;;5053048;28;20492;-66
2021/05/02 08:17:17;;;;;;;8.23;5.57;;;;;;;;;;5052647;28;20027;-66
2021/05/02 08:19:42;;;;;;;6.25;5.05;;;;;;;;;;5053232;28;20032;-67
2021/05/02 08:22:08;;;;;;;7.85;5.75;;;;;;;;;;5052814;28;20036;-66
2021/05/02 08:24:33;;;;;;;8.93;5.47;;;;;;;;;;5053000;28;20028;-66
2021/05/02 08:26:58;;;;;;;7.50;5.57;;;;;;;;;;5052731;28;20032;-66
2021/05/02 08:29:24;;;;;;;8.60;5.55;;;;;;;;;;5026102;28;20041;-66
2021/05/02 08:31:49;;;;;;;9.35;5.50;;;;;;;;;;5044074;28;20108;-66
2021/05/02 08:34:14;;;;;;;9.75;5.60;;;;;;;;;;5044379;28;20037;-67
2021/05/02 08:36:39;;;;;;;10.90;6.35;;;;;;;;;;5043793;28;20044;-67
2021/05/02 08:39:05;;;;;;;7.03;5.22;;;;;;;;;;5044178;28;20025;-66
2021/05/02 08:41:31;;;;;;;8.32;5.00;;;;;;;;;;5044098;28;20141;-67
2021/05/02 08:43:56;;;;;;;9.52;5.43;;;;;;;;;;5044708;28;20029;-67
2021/05/02 08:46:22;;;;;;;8.05;4.55;;;;;;;;;;5044677;28;20437;-66
2021/05/02 08:48:48;;;;;;;6.78;4.82;;;;;;;;;;5048261;28;20070;-66
2021/05/02 08:51:14;;;;;;;7.72;5.25;;;;;;;;;;5052031;28;20095;-67
2021/05/02 08:53:39;;;;;;;6.45;4.72;;;;;;;;;;5049803;28;20349;-66
2021/05/02 08:56:05;;;;;;;6.88;4.88;;;;;;;;;;5052540;28;20188;-66
2021/05/02 08:58:30;;;;;;;6.85;5.10;;;;;;;;;;5052642;28;20378;-66
2021/05/02 09:00:56;;;;;;;7.80;5.63;;;;;;;;;;5052720;28;20021;-67
2021/05/02 09:03:35;;;;;;;7.95;6.13;;;;;;;;;;5052123;28;20033;-66
2021/05/02 09:06:03;;;;;;;7.90;5.85;;;;;;;;;;5052764;28;20041;-66
2021/05/02 09:08:30;;;;;;;7.88;6.47;;;;;;;;;;5052412;28;20716;-67
2021/05/02 09:10:55;;;;;;;8.30;6.65;;;;;;;;;;5051323;28;20029;-66
2021/05/02 09:13:20;;;;;;;7.85;5.93;;;;;;;;;;5051970;28;20480;-66
2021/05/02 09:15:55;;;;;;;6.78;5.75;;;;;;;;;;5043064;28;20029;-67
2021/05/02 09:18:31;;;;;;;9.13;5.82;;;;;;;;;;5046493;28;20078;-67
2021/05/02 09:20:56;;;;;;;6.25;4.60;;;;;;;;;;5033094;28;20040;-66
2021/05/02 09:23:21;;;;;;;7.93;5.38;;;;;;;;;;5048377;28;20037;-66
2021/05/02 09:25:46;;;;;;;7.45;5.88;;;;;;;;;;5048337;28;20025;-66
2021/05/02 09:28:12;;;;;;;9.02;6.20;;;;;;;;;;5049552;28;20083;-66
2021/05/02 09:30:38;;;;;;;3.22;1.80;;;;;;;;;;5052805;28;20040;-66
2021/05/02 09:33:03;;;;;;;1.58;1.30;;;;;;;;;;5052755;28;20028;-66
2021/05/02 09:35:30;;;;;;;2.63;1.50;;;;;;;;;;5052759;28;20473;-67
2021/05/02 09:38:08;;;;;;;4.53;1.95;;;;;;;;;;5052362;28;20489;-66
2021/05/02 09:40:44;;;;;;;2.40;1.40;;;;;;;;;;5051275;28;20417;-67
2021/05/02 09:43:27;;;;;;;6.25;2.03;;;;;;;;;;5052477;28;20037;-66
2021/05/02 09:46:08;;;;;;;3.03;1.70;;;;;;;;;;5052346;28;20033;-66
2021/05/02 09:48:34;;;;;;;2.40;1.45;;;;;;;;;;5052152;28;20478;-66
2021/05/02 09:51:12;;;;;;;3.58;2.13;;;;;;;;;;5052814;28;20048;-66
2021/05/02 09:53:38;;;;;;;3.80;1.63;;;;;;;;;;5052035;28;20485;-66
2021/05/02 09:56:12;;;;;;;3.65;1.73;;;;;;;;;;5052540;28;20039;-67
2021/05/02 09:58:38;;;;;;;4.43;2.10;;;;;;;;;;5052127;28;20107;-66
2021/05/02 10:01:04;;;;;;;4.45;1.70;;;;;;;;;;5052157;28;20465;-66
2021/05/02 10:03:31;;;;;;;2.58;1.52;;;;;;;;;;5052245;28;20189;-66
2021/05/02 10:06:02;;;;;;;2.08;1.17;;;;;;;;;;5052186;28;20025;-66
2021/05/02 10:08:31;;;;;;;3.15;1.30;;;;;;;;;;5051949;28;20025;-66
2021/05/02 10:10:58;;;;;;;4.30;1.90;;;;;;;;;;5051930;28;20503;-66
2021/05/02 10:13:23;;;;;;;4.15;1.98;;;;;;;;;;5052116;28;20020;-66
2021/05/02 10:15:49;;;;;;;2.67;1.30;;;;;;;;;;5052374;28;20376;-66
2021/05/02 10:18:14;;;;;;;1.70;1.25;;;;;;;;;;5052047;28;20044;-66
2021/05/02 10:20:44;;;;;;;2.70;1.25;;;;;;;;;;5051809;28;20103;-66
2021/05/02 10:23:09;;;;;;;2.00;1.35;;;;;;;;;;5051367;28;20489;-66
2021/05/02 10:25:37;;;;;;;2.15;1.30;;;;;;;;;;5051861;28;20032;-66
2021/05/02 10:28:03;;;;;;;2.80;1.55;;;;;;;;;;5051848;28;20108;-66
2021/05/02 10:30:30;;;;;;;3.55;1.40;;;;;;;;;;5051663;28;20481;-66
2021/05/02 10:33:02;;;;;;;3.47;1.48;;;;;;;;;;5051815;28;20111;-66
2021/05/02 10:35:54;;;;;;;1.77;1.20;;;;;;;;;;5051940;28;20028;-66
2021/05/02 10:38:42;;;;;;;1.92;1.20;;;;;;;;;;5048125;28;20045;-65
2021/05/02 10:41:28;;;;;;;1.95;1.05;;;;;;;;;;5036532;28;20137;-66
2021/05/02 10:43:54;;;;;;;2.60;1.40;;;;;;;;;;5050564;28;20048;-66
2021/05/02 10:46:38;;;;;;;2.97;1.45;;;;;;;;;;5051982;28;20059;-65
2021/05/02 10:49:04;;;;;;;3.88;1.70;;;;;;;;;;5036387;28;20082;-65
2021/05/02 10:51:30;;;;;;;4.40;1.52;;;;;;;;;;5051356;28;20025;-65
2021/05/02 10:54:03;;;;;;;4.13;1.63;;;;;;;;;;5051164;28;20036;-65
2021/05/02 10:56:41;;;;;;;2.80;1.48;;;;;;;;;;5051254;28;20036;-65
2021/05/02 10:59:06;;;;;;;1.90;1.40;;;;;;;;;;5051002;28;20459;-66
2021/05/02 11:01:32;;;;;;;3.03;1.45;;;;;;;;;;5050760;28;20052;-68
2021/05/02 11:03:57;;;;;;;3.45;1.13;;;;;;;;;;5050426;28;20027;-67
2021/05/02 11:06:38;;;;;;;3.42;1.15;;;;;;;;;;5051198;28;20028;-68
2021/05/02 11:09:04;;;;;;;4.78;1.00;;;;;;;;;;5036208;28;20033;-68
2021/05/02 11:11:33;;;;;;;2.30;1.30;;;;;;;;;;5050814;28;20017;-67
2021/05/02 11:14:10;;;;;;;3.85;1.20;;;;;;;;;;5050735;28;20402;-67
2021/05/02 11:16:40;;;;;;;2.38;1.40;;;;;;;;;;5050779;28;20390;-67
2021/05/02 11:19:06;;;;;;;4.45;1.40;;;;;;;;;;5051065;28;20032;-68
2021/05/02 11:21:50;;;;;;;1.50;1.13;;;;;;;;;;5050682;28;20041;-67
2021/05/02 11:24:16;;;;;;;3.20;1.50;;;;;;;;;;5050470;28;20040;-67
2021/05/02 11:29:52;;;;;;;2.13;1.25;;;;;;;;;;5050483;28;20033;-67
2021/05/02 11:32:27;;;;;;;2.58;1.30;;;;;;;;;;5047755;28;20186;-67
2021/05/02 11:34:53;;;;;;;2.83;1.45;;;;;;;;;;5048856;28;20040;-67
2021/05/02 11:37:36;;;;;;;3.10;1.60;;;;;;;;;;5050610;28;20166;-67
2021/05/02 11:40:22;;;;;;;5.03;1.98;;;;;;;;;;5050293;28;20438;-67
2021/05/02 11:42:54;;;;;;;9.20;2.28;;;;;;;;;;5049910;28;20119;-67
2021/05/02 11:45:20;;;;;;;2.53;1.35;;;;;;;;;;5050312;28;20301;-67
2021/05/02 11:47:46;;;;;;;3.17;1.45;;;;;;;;;;5048741;28;20037;-67
2021/05/02 11:50:12;;;;;;;4.97;2.10;;;;;;;;;;5049924;28;20458;-68
2021/05/02 11:52:47;;;;;;;4.30;2.95;;;;;;;;;;5049850;28;20037;-68
2021/05/02 11:55:44;;;;;;;4.82;3.03;;;;;;;;;;5049966;28;20537;-67
2021/05/02 11:58:13;;;;;;;7.43;2.88;;;;;;;;;;5010057;28;20049;-68
2021/05/02 12:00:51;;;;;;;6.07;3.08;;;;;;;;;;5050067;28;20116;-68
2021/05/02 12:03:17;;;;;;;5.03;2.78;;;;;;;;;;5049487;28;20037;-67
2021/05/02 12:05:48;;;;;;;3.97;2.75;;;;;;;;;;5050137;28;20041;-68
2021/05/02 12:08:15;;;;;;;3.80;2.95;;;;;;;;;;5050120;28;20028;-65
2021/05/02 12:10:40;;;;;;;4.63;2.90;;;;;;;;;;5049565;28;20048;-65
2021/05/02 12:13:06;;;;;;;5.20;2.97;;;;;;;;;;5049429;28;20373;-65
2021/05/02 12:15:34;;;;;;;4.68;2.90;;;;;;;;;;5049952;28;20408;-65
2021/05/02 12:18:00;;;;;;;8.63;3.00;;;;;;;;;;5049612;28;20037;-68
2021/05/02 12:20:25;;;;;;;5.22;3.28;;;;;;;;;;5048310;28;20044;-67
2021/05/02 12:22:51;;;;;;;6.10;4.03;;;;;;;;;;5053243;28;20041;-67
2021/05/02 12:25:16;;;;;;;9.32;4.00;;;;;;;;;;5053269;28;20059;-67
2021/05/02 12:27:55;;;;;;;6.05;3.45;;;;;;;;;;5053183;28;20037;-68
2021/05/02 12:30:20;;;;;;;5.90;3.53;;;;;;;;;;5042327;28;20394;-65
2021/05/02 12:32:46;;;;;;;5.20;3.55;;;;;;;;;;5046867;28;20083;-65
2021/05/02 12:35:11;;;;;;;7.72;3.83;;;;;;;;;;5048217;28;20035;-67
2021/05/02 12:37:36;;;;;;;4.57;3.00;;;;;;;;;;5049521;28;20095;-67
2021/05/02 12:40:06;;;;;;;5.60;3.25;;;;;;;;;;5047967;28;20052;-67
2021/05/02 12:42:32;;;;;;;5.53;3.47;;;;;;;;;;5048771;28;20045;-67
2021/05/02 12:44:57;;;;;;;6.18;3.40;;;;;;;;;;5049406;28;20108;-67
2021/05/02 12:47:30;;;;;;;6.60;3.17;;;;;;;;;;5049471;28;20115;-65
2021/05/02 12:50:00;;;;;;;5.93;3.35;;;;;;;;;;5049535;28;20017;-65
2021/05/02 12:52:29;;;;;;;5.97;3.50;;;;;;;;;;5048906;28;20136;-65
2021/05/02 12:54:55;;;;;;;5.45;3.42;;;;;;;;;;5049244;28;20105;-65
2021/05/02 12:57:24;;;;;;;6.88;4.13;;;;;;;;;;5049151;28;20478;-65
2021/05/02 12:59:52;;;;;;;7.28;3.90;;;;;;;;;;5049437;28;20093;-65
2021/05/02 13:02:26;;;;;;;8.65;3.83;;;;;;;;;;5050325;28;20094;-67
2021/05/02 13:04:55;;;;;;;7.03;3.13;;;;;;;;;;5053103;28;20033;-67
2021/05/02 13:07:30;;;;;;;6.30;3.35;;;;;;;;;;5053307;28;20112;-67
2021/05/02 13:09:55;;;;;;;5.97;3.07;;;;;;;;;;5053367;28;20037;-67
2021/05/02 13:12:21;;;;;;;7.50;3.80;;;;;;;;;;5052915;28;20040;-67
2021/05/02 13:15:23;;;;;;;7.60;3.25;;;;;;;;;;5052384;28;20388;-67
2021/05/02 13:18:08;;;;;;;8.50;3.38;;;;;;;;;;4978554;28;20380;-67
2021/05/02 13:20:52;;;;;;;6.70;3.45;;;;;;;;;;5048627;28;20477;-66
2021/05/02 13:23:24;;;;;;;5.60;3.45;;;;;;;;;;5052980;28;20037;-66
2021/05/02 13:25:49;;;;;;;5.03;3.20;;;;;;;;;;5052398;28;20037;-66
2021/05/02 13:28:14;;;;;;;6.22;4.28;;;;;;;;;;5052793;28;20036;-66
2021/05/02 13:30:39;;;;;;;7.72;4.45;;;;;;;;;;5053068;28;20568;-67
2021/05/02 13:33:06;;;;;;;6.45;4.65;;;;;;;;;;5052513;28;20048;-66
2021/05/02 13:35:33;;;;;;;6.53;4.22;;;;;;;;;;5052570;28;20021;-67
2021/05/02 13:37:59;;;;;;;6.43;3.50;;;;;;;;;;5052263;28;20033;-65
2021/05/02 13:40:25;;;;;;;6.85;3.53;;;;;;;;;;5051834;28;20057;-65
2021/05/02 13:42:51;;;;;;;6.97;3.50;;;;;;;;;;5052402;28;20041;-65
2021/05/02 13:45:17;;;;;;;6.65;3.08;;;;;;;;;;5052143;28;20052;-65
2021/05/02 13:47:42;;;;;;;7.43;3.25;;;;;;;;;;5052434;28;20138;-65
2021/05/02 13:50:08;;;;;;;5.30;3.05;;;;;;;;;;5052677;28;20480;-65
2021/05/02 13:52:33;;;;;;;5.50;3.70;;;;;;;;;;5053693;28;20025;-65
2021/05/02 13:54:59;;;;;;;5.57;3.58;;;;;;;;;;5056013;28;20055;-65
2021/05/02 13:57:24;;;;;;;47.05;29.80;;;;;;;;;;5055779;28;20028;-65
2021/05/02 13:59:50;;;;;;;6.70;4.03;;;;;;;;;;5056060;28;20041;-65
2021/05/02 14:02:16;;;;;;;9.60;5.05;;;;;;;;;;5055632;28;20044;-65
2021/05/02 14:04:41;;;;;;;12.95;8.82;;;;;;;;;;5055339;28;20021;-65
2021/05/02 14:07:06;;;;;;;47.40;29.60;;;;;;;;;;5055383;28;20079;-65
2021/05/02 14:09:32;;;;;;;6.22;3.67;;;;;;;;;;5056082;28;20024;-65
2021/05/02 14:11:57;;;;;;;5.65;3.50;;;;;;;;;;5055751;28;20021;-65
2021/05/02 14:14:22;;;;;;;12.27;8.10;;;;;;;;;;5054496;28;20029;-65
2021/05/02 14:16:47;;;;;;;6.47;4.60;;;;;;;;;;5055634;28;20033;-65
2021/05/02 14:19:13;;;;;;;13.23;7.47;;;;;;;;;;5055560;28;20040;-65
2021/05/02 14:21:38;;;;;;;21.98;14.27;;;;;;;;;;5054798;28;20086;-65
2021/05/02 14:24:04;;;;;;;10.85;4.70;;;;;;;;;;5054788;28;20064;-65
2021/05/02 14:26:29;;;;;;;7.50;3.92;;;;;;;;;;5054959;28;20457;-65
2021/05/02 14:28:54;;;;;;;6.57;3.30;;;;;;;;;;5055002;28;20025;-65
2021/05/02 14:31:19;;;;;;;16.27;8.57;;;;;;;;;;5055369;28;20480;-65
2021/05/02 14:33:45;;;;;;;6.93;3.45;;;;;;;;;;5054987;28;20104;-65
2021/05/02 14:36:11;;;;;;;4.22;2.35;;;;;;;;;;5055147;28;20028;-65
2021/05/02 14:38:37;;;;;;;12.40;8.00;;;;;;;;;;5055140;28;20036;-65